sensor_id;sensor_type;location;lat;lon;timestamp;P1;durP1;ratioP1;P2;durP2;ratioP2
29940;SDS011;16801;53.562;10.038;2023-05-31T00:02:25;3.87;;;2.40;;
29940;SDS011;16801;53.562;10.038;2023-05-31T00:05:46;6.40;;;3.20;;
29940;SDS011;16801;53.562;10.038;2023-05-31T00:09:06;5.20;;;3.20;;
29940;SDS011;16801;53.562;10.038;2023-05-31T00:12:29;3.53;;;3.20;;
29940;SDS011;16801;53.562;10.038;2023-05-31T00:15:50;3.67;;;3.07;;
29940;SDS011;16801;53.562;10.038;2023-05-31T00:19:11;3.17;;;2.27;;
29940;SDS011;16801;53.562;10.038;2023-05-31T00:22:32;2.90;;;2.67;;
29940;SDS011;16801;53.562;10.038;2023-05-31T00:25:53;3.17;;;2.70;;
29940;SDS011;16801;53.562;10.038;2023-05-31T00:29:15;2.77;;;2.50;;
29940;SDS011;16801;53.562;10.038;2023-05-31T00:32:36;5.77;;;3.63;;
29940;SDS011;16801;53.562;10.038;2023-05-31T00:35:57;3.50;;;3.27;;
29940;SDS011;16801;53.562;10.038;2023-05-31T00:39:17;2.70;;;2.50;;
29940;SDS011;16801;53.562;10.038;2023-05-31T00:42:38;4.70;;;2.37;;
29940;SDS011;16801;53.562;10.038;2023-05-31T00:46:00;3.30;;;2.27;;
29940;SDS011;16801;53.562;10.038;2023-05-31T00:49:22;3.67;;;2.57;;
29940;SDS011;16801;53.562;10.038;2023-05-31T00:52:44;3.33;;;3.03;;
29940;SDS011;16801;53.562;10.038;2023-05-31T00:56:06;3.47;;;2.27;;
29940;SDS011;16801;53.562;10.038;2023-05-31T00:59:27;6.20;;;2.73;;
29940;SDS011;16801;53.562;10.038;2023-05-31T01:02:51;3.17;;;2.67;;
29940;SDS011;16801;53.562;10.038;2023-05-31T01:06:12;3.17;;;2.70;;
29940;SDS011;16801;53.562;10.038;2023-05-31T01:09:34;3.17;;;2.57;;
29940;SDS011;16801;53.562;10.038;2023-05-31T01:12:59;3.57;;;2.40;;
29940;SDS011;16801;53.562;10.038;2023-05-31T01:16:27;3.10;;;2.77;;
29940;SDS011;16801;53.562;10.038;2023-05-31T01:19:54;3.27;;;2.13;;
29940;SDS011;16801;53.562;10.038;2023-05-31T01:23:30;2.80;;;2.57;;
29940;SDS011;16801;53.562;10.038;2023-05-31T01:26:58;10.67;;;3.67;;
29940;SDS011;16801;53.562;10.038;2023-05-31T01:30:22;2.17;;;2.07;;
29940;SDS011;16801;53.562;10.038;2023-05-31T01:33:44;3.63;;;2.90;;
29940;SDS011;16801;53.562;10.038;2023-05-31T01:37:07;6.23;;;3.73;;
29940;SDS011;16801;53.562;10.038;2023-05-31T01:40:29;6.10;;;2.90;;
29940;SDS011;16801;53.562;10.038;2023-05-31T01:43:54;3.10;;;2.90;;
29940;SDS011;16801;53.562;10.038;2023-05-31T01:47:15;4.57;;;2.87;;
29940;SDS011;16801;53.562;10.038;2023-05-31T01:50:38;2.33;;;2.13;;
29940;SDS011;16801;53.562;10.038;2023-05-31T01:54:01;3.47;;;3.17;;
29940;SDS011;16801;53.562;10.038;2023-05-31T01:57:22;5.30;;;3.80;;
29940;SDS011;16801;53.562;10.038;2023-05-31T02:00:46;5.43;;;2.60;;
29940;SDS011;16801;53.562;10.038;2023-05-31T02:04:09;3.23;;;2.50;;
29940;SDS011;16801;53.562;10.038;2023-05-31T02:07:30;6.57;;;3.40;;
29940;SDS011;16801;53.562;10.038;2023-05-31T02:10:51;2.37;;;2.17;;
29940;SDS011;16801;53.562;10.038;2023-05-31T02:14:13;2.37;;;2.20;;
29940;SDS011;16801;53.562;10.038;2023-05-31T02:17:35;3.77;;;2.23;;
29940;SDS011;16801;53.562;10.038;2023-05-31T02:21:00;6.33;;;2.87;;
29940;SDS011;16801;53.562;10.038;2023-05-31T02:24:21;5.67;;;2.97;;
29940;SDS011;16801;53.562;10.038;2023-05-31T02:27:42;5.83;;;3.43;;
29940;SDS011;16801;53.562;10.038;2023-05-31T02:31:04;3.67;;;3.13;;
29940;SDS011;16801;53.562;10.038;2023-05-31T02:34:27;3.93;;;3.43;;
29940;SDS011;16801;53.562;10.038;2023-05-31T02:37:48;3.27;;;2.97;;
29940;SDS011;16801;53.562;10.038;2023-05-31T02:41:09;4.47;;;2.80;;
29940;SDS011;16801;53.562;10.038;2023-05-31T02:44:32;4.27;;;2.83;;
29940;SDS011;16801;53.562;10.038;2023-05-31T02:47:53;3.53;;;2.60;;
29940;SDS011;16801;53.562;10.038;2023-05-31T02:51:22;2.70;;;2.37;;
29940;SDS011;16801;53.562;10.038;2023-05-31T02:55:15;4.33;;;2.63;;
29940;SDS011;16801;53.562;10.038;2023-05-31T02:59:03;4.50;;;3.23;;
29940;SDS011;16801;53.562;10.038;2023-05-31T03:02:31;4.07;;;2.93;;
29940;SDS011;16801;53.562;10.038;2023-05-31T03:06:11;3.23;;;3.03;;
29940;SDS011;16801;53.562;10.038;2023-05-31T03:09:37;5.90;;;3.23;;
29940;SDS011;16801;53.562;10.038;2023-05-31T03:12:59;3.27;;;2.50;;
29940;SDS011;16801;53.562;10.038;2023-05-31T03:16:20;3.47;;;2.90;;
29940;SDS011;16801;53.562;10.038;2023-05-31T03:19:42;6.17;;;4.10;;
29940;SDS011;16801;53.562;10.038;2023-05-31T03:23:03;7.43;;;3.47;;
29940;SDS011;16801;53.562;10.038;2023-05-31T03:26:30;7.57;;;3.23;;
29940;SDS011;16801;53.562;10.038;2023-05-31T03:29:51;9.27;;;4.40;;
29940;SDS011;16801;53.562;10.038;2023-05-31T03:33:12;4.73;;;2.73;;
29940;SDS011;16801;53.562;10.038;2023-05-31T03:36:33;3.93;;;3.20;;
29940;SDS011;16801;53.562;10.038;2023-05-31T03:40:16;3.53;;;2.87;;
29940;SDS011;16801;53.562;10.038;2023-05-31T03:43:39;3.97;;;3.43;;
29940;SDS011;16801;53.562;10.038;2023-05-31T03:47:00;5.97;;;3.50;;
29940;SDS011;16801;53.562;10.038;2023-05-31T03:50:21;5.37;;;2.80;;
29940;SDS011;16801;53.562;10.038;2023-05-31T03:53:42;10.60;;;8.57;;
29940;SDS011;16801;53.562;10.038;2023-05-31T03:57:03;12.07;;;9.83;;
29940;SDS011;16801;53.562;10.038;2023-05-31T04:00:25;8.73;;;7.93;;
29940;SDS011;16801;53.562;10.038;2023-05-31T04:03:46;6.30;;;5.70;;
29940;SDS011;16801;53.562;10.038;2023-05-31T04:07:07;15.93;;;9.37;;
29940;SDS011;16801;53.562;10.038;2023-05-31T04:10:28;10.40;;;9.33;;
29940;SDS011;16801;53.562;10.038;2023-05-31T04:13:49;7.83;;;7.07;;
29940;SDS011;16801;53.562;10.038;2023-05-31T04:17:11;7.10;;;5.23;;
29940;SDS011;16801;53.562;10.038;2023-05-31T04:20:32;10.53;;;9.57;;
29940;SDS011;16801;53.562;10.038;2023-05-31T04:23:53;9.43;;;7.47;;
29940;SDS011;16801;53.562;10.038;2023-05-31T04:27:14;6.70;;;5.37;;
29940;SDS011;16801;53.562;10.038;2023-05-31T04:30:38;5.77;;;5.23;;
29940;SDS011;16801;53.562;10.038;2023-05-31T04:34:01;6.90;;;6.20;;
29940;SDS011;16801;53.562;10.038;2023-05-31T04:37:24;5.17;;;3.93;;
29940;SDS011;16801;53.562;10.038;2023-05-31T04:40:46;4.93;;;3.80;;
29940;SDS011;16801;53.562;10.038;2023-05-31T04:44:09;6.97;;;5.47;;
29940;SDS011;16801;53.562;10.038;2023-05-31T04:47:30;6.10;;;4.07;;
29940;SDS011;16801;53.562;10.038;2023-05-31T04:50:54;4.87;;;3.93;;
29940;SDS011;16801;53.562;10.038;2023-05-31T04:54:15;3.80;;;3.40;;
29940;SDS011;16801;53.562;10.038;2023-05-31T04:57:37;7.00;;;3.50;;
29940;SDS011;16801;53.562;10.038;2023-05-31T05:01:00;7.33;;;3.97;;
29940;SDS011;16801;53.562;10.038;2023-05-31T05:04:29;5.53;;;3.33;;
29940;SDS011;16801;53.562;10.038;2023-05-31T05:07:51;3.43;;;3.13;;
29940;SDS011;16801;53.562;10.038;2023-05-31T05:11:15;5.83;;;3.60;;
29940;SDS011;16801;53.562;10.038;2023-05-31T05:14:36;4.33;;;3.73;;
29940;SDS011;16801;53.562;10.038;2023-05-31T05:18:00;6.27;;;4.23;;
29940;SDS011;16801;53.562;10.038;2023-05-31T05:21:21;4.90;;;3.93;;
29940;SDS011;16801;53.562;10.038;2023-05-31T05:24:44;4.53;;;3.47;;
29940;SDS011;16801;53.562;10.038;2023-05-31T05:28:05;5.73;;;3.03;;
29940;SDS011;16801;53.562;10.038;2023-05-31T05:31:26;5.47;;;3.63;;
29940;SDS011;16801;53.562;10.038;2023-05-31T05:34:50;4.43;;;3.30;;
29940;SDS011;16801;53.562;10.038;2023-05-31T05:38:12;5.67;;;3.57;;
29940;SDS011;16801;53.562;10.038;2023-05-31T05:41:34;9.83;;;3.60;;
29940;SDS011;16801;53.562;10.038;2023-05-31T05:44:57;4.70;;;3.70;;
29940;SDS011;16801;53.562;10.038;2023-05-31T05:48:17;4.50;;;2.90;;
29940;SDS011;16801;53.562;10.038;2023-05-31T05:51:39;4.53;;;2.83;;
29940;SDS011;16801;53.562;10.038;2023-05-31T05:55:02;5.53;;;3.40;;
29940;SDS011;16801;53.562;10.038;2023-05-31T05:58:25;11.90;;;4.23;;
29940;SDS011;16801;53.562;10.038;2023-05-31T06:02:04;8.93;;;4.40;;
29940;SDS011;16801;53.562;10.038;2023-05-31T06:05:25;4.73;;;3.47;;
29940;SDS011;16801;53.562;10.038;2023-05-31T06:08:47;5.20;;;3.43;;
29940;SDS011;16801;53.562;10.038;2023-05-31T06:12:09;4.73;;;3.43;;
29940;SDS011;16801;53.562;10.038;2023-05-31T06:15:34;3.43;;;2.83;;
29940;SDS011;16801;53.562;10.038;2023-05-31T06:18:56;5.70;;;4.27;;
29940;SDS011;16801;53.562;10.038;2023-05-31T06:22:18;6.87;;;4.03;;
29940;SDS011;16801;53.562;10.038;2023-05-31T06:25:39;5.10;;;2.97;;
29940;SDS011;16801;53.562;10.038;2023-05-31T06:29:02;3.67;;;3.37;;
29940;SDS011;16801;53.562;10.038;2023-05-31T06:32:53;2.73;;;2.50;;
29940;SDS011;16801;53.562;10.038;2023-05-31T06:36:17;5.13;;;4.47;;
29940;SDS011;16801;53.562;10.038;2023-05-31T06:39:38;3.40;;;3.10;;
29940;SDS011;16801;53.562;10.038;2023-05-31T06:42:59;8.00;;;3.07;;
29940;SDS011;16801;53.562;10.038;2023-05-31T06:46:39;3.05;;;2.47;;
29940;SDS011;16801;53.562;10.038;2023-05-31T06:50:21;5.20;;;3.22;;
29940;SDS011;16801;53.562;10.038;2023-05-31T06:54:01;5.45;;;2.88;;
29940;SDS011;16801;53.562;10.038;2023-05-31T06:57:22;13.77;;;5.40;;
29940;SDS011;16801;53.562;10.038;2023-05-31T07:00:43;4.60;;;3.03;;
29940;SDS011;16801;53.562;10.038;2023-05-31T07:04:04;6.22;;;1.80;;
29940;SDS011;16801;53.562;10.038;2023-05-31T07:07:27;3.63;;;2.00;;
29940;SDS011;16801;53.562;10.038;2023-05-31T07:10:48;3.50;;;2.42;;
29940;SDS011;16801;53.562;10.038;2023-05-31T07:14:10;5.30;;;2.03;;
29940;SDS011;16801;53.562;10.038;2023-05-31T07:17:31;4.85;;;2.95;;
29940;SDS011;16801;53.562;10.038;2023-05-31T07:20:53;5.63;;;2.72;;
29940;SDS011;16801;53.562;10.038;2023-05-31T07:24:17;9.40;;;2.53;;
29940;SDS011;16801;53.562;10.038;2023-05-31T07:27:38;4.53;;;2.77;;
29940;SDS011;16801;53.562;10.038;2023-05-31T07:31:00;2.58;;;2.13;;
29940;SDS011;16801;53.562;10.038;2023-05-31T07:34:21;4.30;;;2.55;;
29940;SDS011;16801;53.562;10.038;2023-05-31T07:37:42;8.73;;;2.58;;
29940;SDS011;16801;53.562;10.038;2023-05-31T07:41:04;2.72;;;1.63;;
29940;SDS011;16801;53.562;10.038;2023-05-31T07:44:26;3.30;;;1.98;;
29940;SDS011;16801;53.562;10.038;2023-05-31T07:47:47;2.95;;;2.25;;
29940;SDS011;16801;53.562;10.038;2023-05-31T07:51:12;1.98;;;1.73;;
29940;SDS011;16801;53.562;10.038;2023-05-31T07:54:33;2.80;;;1.77;;
29940;SDS011;16801;53.562;10.038;2023-05-31T07:57:56;7.10;;;1.60;;
29940;SDS011;16801;53.562;10.038;2023-05-31T08:01:19;4.57;;;2.63;;
29940;SDS011;16801;53.562;10.038;2023-05-31T08:04:40;3.25;;;1.27;;
29940;SDS011;16801;53.562;10.038;2023-05-31T08:08:02;6.03;;;3.15;;
29940;SDS011;16801;53.562;10.038;2023-05-31T08:11:25;2.03;;;1.40;;
29940;SDS011;16801;53.562;10.038;2023-05-31T08:14:49;4.75;;;2.10;;
29940;SDS011;16801;53.562;10.038;2023-05-31T08:18:10;4.72;;;1.90;;
29940;SDS011;16801;53.562;10.038;2023-05-31T08:21:31;8.82;;;2.05;;
29940;SDS011;16801;53.562;10.038;2023-05-31T08:24:52;6.68;;;1.90;;
29940;SDS011;16801;53.562;10.038;2023-05-31T08:28:15;3.28;;;1.70;;
29940;SDS011;16801;53.562;10.038;2023-05-31T08:31:37;4.55;;;2.50;;
29940;SDS011;16801;53.562;10.038;2023-05-31T08:34:59;2.50;;;1.67;;
29940;SDS011;16801;53.562;10.038;2023-05-31T08:38:20;4.28;;;1.67;;
29940;SDS011;16801;53.562;10.038;2023-05-31T08:41:46;3.20;;;1.42;;
29940;SDS011;16801;53.562;10.038;2023-05-31T08:45:13;3.15;;;2.17;;
29940;SDS011;16801;53.562;10.038;2023-05-31T08:48:37;2.55;;;1.33;;
29940;SDS011;16801;53.562;10.038;2023-05-31T08:52:03;3.45;;;2.13;;
29940;SDS011;16801;53.562;10.038;2023-05-31T08:55:26;2.63;;;1.45;;
29940;SDS011;16801;53.562;10.038;2023-05-31T08:58:50;3.65;;;2.00;;
29940;SDS011;16801;53.562;10.038;2023-05-31T09:02:11;5.97;;;4.15;;
29940;SDS011;16801;53.562;10.038;2023-05-31T09:05:35;2.92;;;1.95;;
29940;SDS011;16801;53.562;10.038;2023-05-31T09:08:58;2.30;;;1.38;;
29940;SDS011;16801;53.562;10.038;2023-05-31T09:12:20;3.20;;;1.88;;
29940;SDS011;16801;53.562;10.038;2023-05-31T09:15:42;2.25;;;1.50;;
29940;SDS011;16801;53.562;10.038;2023-05-31T09:19:05;2.03;;;1.63;;
29940;SDS011;16801;53.562;10.038;2023-05-31T09:22:27;5.25;;;2.10;;
29940;SDS011;16801;53.562;10.038;2023-05-31T09:25:49;3.05;;;1.60;;
29940;SDS011;16801;53.562;10.038;2023-05-31T09:29:12;3.85;;;1.92;;
29940;SDS011;16801;53.562;10.038;2023-05-31T09:32:34;4.68;;;2.20;;
29940;SDS011;16801;53.562;10.038;2023-05-31T09:35:56;2.67;;;1.75;;
29940;SDS011;16801;53.562;10.038;2023-05-31T09:39:19;5.53;;;1.95;;
29940;SDS011;16801;53.562;10.038;2023-05-31T09:42:49;5.05;;;1.40;;
29940;SDS011;16801;53.562;10.038;2023-05-31T09:46:11;3.65;;;2.10;;
29940;SDS011;16801;53.562;10.038;2023-05-31T09:49:33;3.72;;;1.85;;
29940;SDS011;16801;53.562;10.038;2023-05-31T09:52:55;2.67;;;1.85;;
29940;SDS011;16801;53.562;10.038;2023-05-31T09:56:19;3.55;;;2.00;;
29940;SDS011;16801;53.562;10.038;2023-05-31T09:59:41;2.22;;;1.58;;
29940;SDS011;16801;53.562;10.038;2023-05-31T10:03:02;4.32;;;2.17;;
29940;SDS011;16801;53.562;10.038;2023-05-31T10:06:24;3.78;;;1.85;;
29940;SDS011;16801;53.562;10.038;2023-05-31T10:09:45;1.85;;;1.75;;
29940;SDS011;16801;53.562;10.038;2023-05-31T10:13:08;5.30;;;1.85;;
29940;SDS011;16801;53.562;10.038;2023-05-31T10:16:35;3.33;;;1.70;;
29940;SDS011;16801;53.562;10.038;2023-05-31T10:20:05;2.58;;;1.63;;
29940;SDS011;16801;53.562;10.038;2023-05-31T10:23:28;3.75;;;1.90;;
29940;SDS011;16801;53.562;10.038;2023-05-31T10:26:54;3.40;;;2.05;;
29940;SDS011;16801;53.562;10.038;2023-05-31T10:30:21;3.10;;;1.80;;
29940;SDS011;16801;53.562;10.038;2023-05-31T10:33:53;4.13;;;1.95;;
29940;SDS011;16801;53.562;10.038;2023-05-31T10:37:16;5.90;;;1.75;;
29940;SDS011;16801;53.562;10.038;2023-05-31T10:40:41;2.28;;;2.08;;
29940;SDS011;16801;53.562;10.038;2023-05-31T10:44:07;4.20;;;2.22;;
29940;SDS011;16801;53.562;10.038;2023-05-31T10:47:34;4.43;;;2.47;;
29940;SDS011;16801;53.562;10.038;2023-05-31T10:51:00;9.77;;;1.65;;
29940;SDS011;16801;53.562;10.038;2023-05-31T10:54:25;2.92;;;2.00;;
29940;SDS011;16801;53.562;10.038;2023-05-31T10:57:52;5.22;;;1.50;;
29940;SDS011;16801;53.562;10.038;2023-05-31T11:01:15;1.67;;;1.42;;
29940;SDS011;16801;53.562;10.038;2023-05-31T11:04:41;2.80;;;2.08;;
29940;SDS011;16801;53.562;10.038;2023-05-31T11:08:03;2.97;;;1.73;;
29940;SDS011;16801;53.562;10.038;2023-05-31T11:11:42;5.55;;;1.70;;
29940;SDS011;16801;53.562;10.038;2023-05-31T11:15:11;3.75;;;1.98;;
29940;SDS011;16801;53.562;10.038;2023-05-31T11:18:40;3.55;;;1.98;;
29940;SDS011;16801;53.562;10.038;2023-05-31T11:22:07;1.42;;;1.33;;
29940;SDS011;16801;53.562;10.038;2023-05-31T11:25:29;7.90;;;1.63;;
29940;SDS011;16801;53.562;10.038;2023-05-31T11:28:51;4.38;;;1.88;;
29940;SDS011;16801;53.562;10.038;2023-05-31T11:32:17;2.03;;;1.55;;
29940;SDS011;16801;53.562;10.038;2023-05-31T11:35:38;2.15;;;1.33;;
29940;SDS011;16801;53.562;10.038;2023-05-31T11:39:00;2.72;;;1.88;;
29940;SDS011;16801;53.562;10.038;2023-05-31T11:42:21;4.88;;;2.40;;
29940;SDS011;16801;53.562;10.038;2023-05-31T11:45:45;3.38;;;2.30;;
29940;SDS011;16801;53.562;10.038;2023-05-31T11:49:08;3.53;;;1.75;;
29940;SDS011;16801;53.562;10.038;2023-05-31T11:52:29;4.35;;;1.55;;
29940;SDS011;16801;53.562;10.038;2023-05-31T11:55:51;2.03;;;1.63;;
29940;SDS011;16801;53.562;10.038;2023-05-31T11:59:12;3.00;;;1.77;;
29940;SDS011;16801;53.562;10.038;2023-05-31T12:02:34;7.57;;;3.05;;
29940;SDS011;16801;53.562;10.038;2023-05-31T12:05:56;2.28;;;1.60;;
29940;SDS011;16801;53.562;10.038;2023-05-31T12:09:22;2.60;;;1.80;;
29940;SDS011;16801;53.562;10.038;2023-05-31T12:12:44;2.13;;;1.83;;
29940;SDS011;16801;53.562;10.038;2023-05-31T12:16:06;4.18;;;2.22;;
29940;SDS011;16801;53.562;10.038;2023-05-31T12:19:27;2.70;;;1.35;;
29940;SDS011;16801;53.562;10.038;2023-05-31T12:22:48;1.83;;;1.70;;
29940;SDS011;16801;53.562;10.038;2023-05-31T12:26:08;3.13;;;1.38;;
29940;SDS011;16801;53.562;10.038;2023-05-31T12:29:33;1.63;;;1.50;;
29940;SDS011;16801;53.562;10.038;2023-05-31T12:32:57;2.58;;;1.48;;
29940;SDS011;16801;53.562;10.038;2023-05-31T12:36:17;3.60;;;2.05;;
29940;SDS011;16801;53.562;10.038;2023-05-31T12:39:39;3.33;;;1.35;;
29940;SDS011;16801;53.562;10.038;2023-05-31T12:43:00;2.38;;;1.40;;
29940;SDS011;16801;53.562;10.038;2023-05-31T12:46:22;1.80;;;1.38;;
29940;SDS011;16801;53.562;10.038;2023-05-31T12:49:43;3.47;;;1.58;;
29940;SDS011;16801;53.562;10.038;2023-05-31T12:53:05;1.77;;;1.40;;
29940;SDS011;16801;53.562;10.038;2023-05-31T12:56:27;2.80;;;1.60;;
29940;SDS011;16801;53.562;10.038;2023-05-31T12:59:56;4.20;;;1.77;;
29940;SDS011;16801;53.562;10.038;2023-05-31T13:03:18;3.08;;;1.50;;
29940;SDS011;16801;53.562;10.038;2023-05-31T13:06:39;2.33;;;1.40;;
29940;SDS011;16801;53.562;10.038;2023-05-31T13:10:01;7.50;;;2.22;;
29940;SDS011;16801;53.562;10.038;2023-05-31T13:13:22;4.50;;;1.67;;
29940;SDS011;16801;53.562;10.038;2023-05-31T13:16:44;2.00;;;1.45;;
29940;SDS011;16801;53.562;10.038;2023-05-31T13:20:07;1.23;;;1.00;;
29940;SDS011;16801;53.562;10.038;2023-05-31T13:23:29;2.67;;;1.30;;
29940;SDS011;16801;53.562;10.038;2023-05-31T13:26:50;2.90;;;1.30;;
29940;SDS011;16801;53.562;10.038;2023-05-31T13:30:11;1.30;;;0.93;;
29940;SDS011;16801;53.562;10.038;2023-05-31T13:33:33;2.17;;;1.25;;
29940;SDS011;16801;53.562;10.038;2023-05-31T13:36:55;4.78;;;1.90;;
29940;SDS011;16801;53.562;10.038;2023-05-31T13:40:16;3.50;;;1.23;;
29940;SDS011;16801;53.562;10.038;2023-05-31T13:43:37;1.02;;;0.93;;
29940;SDS011;16801;53.562;10.038;2023-05-31T13:46:58;8.40;;;1.63;;
29940;SDS011;16801;53.562;10.038;2023-05-31T13:50:19;1.75;;;1.65;;
29940;SDS011;16801;53.562;10.038;2023-05-31T13:53:41;3.13;;;2.58;;
29940;SDS011;16801;53.562;10.038;2023-05-31T13:57:02;1.30;;;1.15;;
29940;SDS011;16801;53.562;10.038;2023-05-31T14:00:24;1.27;;;1.13;;
29940;SDS011;16801;53.562;10.038;2023-05-31T14:03:45;3.95;;;2.20;;
29940;SDS011;16801;53.562;10.038;2023-05-31T14:07:07;2.88;;;1.33;;
29940;SDS011;16801;53.562;10.038;2023-05-31T14:10:29;1.13;;;1.00;;
29940;SDS011;16801;53.562;10.038;2023-05-31T14:13:50;1.35;;;1.17;;
29940;SDS011;16801;53.562;10.038;2023-05-31T14:17:11;4.07;;;1.13;;
29940;SDS011;16801;53.562;10.038;2023-05-31T14:20:32;2.03;;;1.30;;
29940;SDS011;16801;53.562;10.038;2023-05-31T14:23:53;3.40;;;1.10;;
29940;SDS011;16801;53.562;10.038;2023-05-31T14:30:38;3.63;;;1.42;;
29940;SDS011;16801;53.562;10.038;2023-05-31T14:33:59;1.55;;;1.45;;
29940;SDS011;16801;53.562;10.038;2023-05-31T14:37:20;1.38;;;1.20;;
29940;SDS011;16801;53.562;10.038;2023-05-31T14:40:40;1.75;;;1.25;;
29940;SDS011;16801;53.562;10.038;2023-05-31T14:44:03;1.20;;;1.10;;
29940;SDS011;16801;53.562;10.038;2023-05-31T14:47:24;2.45;;;1.50;;
29940;SDS011;16801;53.562;10.038;2023-05-31T14:50:45;3.05;;;1.40;;
29940;SDS011;16801;53.562;10.038;2023-05-31T14:54:05;2.20;;;1.52;;
29940;SDS011;16801;53.562;10.038;2023-05-31T14:57:26;1.42;;;1.33;;
29940;SDS011;16801;53.562;10.038;2023-05-31T15:00:48;1.73;;;1.20;;
29940;SDS011;16801;53.562;10.038;2023-05-31T15:04:09;2.38;;;1.48;;
29940;SDS011;16801;53.562;10.038;2023-05-31T15:07:30;6.10;;;2.70;;
29940;SDS011;16801;53.562;10.038;2023-05-31T15:10:51;2.95;;;1.52;;
29940;SDS011;16801;53.562;10.038;2023-05-31T15:14:12;3.20;;;1.27;;
29940;SDS011;16801;53.562;10.038;2023-05-31T15:17:34;2.50;;;1.92;;
29940;SDS011;16801;53.562;10.038;2023-05-31T15:20:55;6.60;;;1.50;;
29940;SDS011;16801;53.562;10.038;2023-05-31T15:24:16;3.28;;;1.70;;
29940;SDS011;16801;53.562;10.038;2023-05-31T15:27:36;2.15;;;1.40;;
29940;SDS011;16801;53.562;10.038;2023-05-31T15:30:57;4.40;;;1.98;;
29940;SDS011;16801;53.562;10.038;2023-05-31T15:34:21;3.70;;;1.65;;
29940;SDS011;16801;53.562;10.038;2023-05-31T15:37:42;2.10;;;1.90;;
29940;SDS011;16801;53.562;10.038;2023-05-31T15:41:03;4.32;;;2.35;;
29940;SDS011;16801;53.562;10.038;2023-05-31T15:44:25;5.75;;;1.77;;
29940;SDS011;16801;53.562;10.038;2023-05-31T15:47:45;3.03;;;2.70;;
29940;SDS011;16801;53.562;10.038;2023-05-31T15:51:08;2.22;;;2.03;;
29940;SDS011;16801;53.562;10.038;2023-05-31T15:54:28;4.55;;;2.05;;
29940;SDS011;16801;53.562;10.038;2023-05-31T15:57:49;5.55;;;3.15;;
29940;SDS011;16801;53.562;10.038;2023-05-31T16:01:10;3.63;;;2.42;;
29940;SDS011;16801;53.562;10.038;2023-05-31T16:04:31;3.15;;;1.90;;
29940;SDS011;16801;53.562;10.038;2023-05-31T16:07:54;2.63;;;2.28;;
29940;SDS011;16801;53.562;10.038;2023-05-31T16:11:18;5.07;;;4.57;;
29940;SDS011;16801;53.562;10.038;2023-05-31T16:14:39;5.07;;;2.83;;
29940;SDS011;16801;53.562;10.038;2023-05-31T16:18:01;10.20;;;4.82;;
29940;SDS011;16801;53.562;10.038;2023-05-31T16:21:22;3.05;;;2.35;;
29940;SDS011;16801;53.562;10.038;2023-05-31T16:24:44;6.40;;;5.35;;
29940;SDS011;16801;53.562;10.038;2023-05-31T16:28:05;4.50;;;3.22;;
29940;SDS011;16801;53.562;10.038;2023-05-31T16:31:26;6.63;;;4.43;;
29940;SDS011;16801;53.562;10.038;2023-05-31T16:34:46;3.72;;;3.03;;
29940;SDS011;16801;53.562;10.038;2023-05-31T16:38:08;3.47;;;1.98;;
29940;SDS011;16801;53.562;10.038;2023-05-31T16:41:30;4.35;;;3.08;;
29940;SDS011;16801;53.562;10.038;2023-05-31T16:44:52;2.17;;;1.98;;
29940;SDS011;16801;53.562;10.038;2023-05-31T16:48:14;3.70;;;3.17;;
29940;SDS011;16801;53.562;10.038;2023-05-31T16:51:35;3.97;;;1.65;;
29940;SDS011;16801;53.562;10.038;2023-05-31T16:54:56;3.88;;;1.70;;
29940;SDS011;16801;53.562;10.038;2023-05-31T16:58:18;2.60;;;1.67;;
29940;SDS011;16801;53.562;10.038;2023-05-31T17:01:39;4.63;;;2.47;;
29940;SDS011;16801;53.562;10.038;2023-05-31T17:05:00;1.88;;;1.65;;
29940;SDS011;16801;53.562;10.038;2023-05-31T17:08:21;14.73;;;12.07;;
29940;SDS011;16801;53.562;10.038;2023-05-31T17:11:42;6.03;;;4.00;;
29940;SDS011;16801;53.562;10.038;2023-05-31T17:15:05;4.50;;;3.60;;
29940;SDS011;16801;53.562;10.038;2023-05-31T17:18:27;4.22;;;3.80;;
29940;SDS011;16801;53.562;10.038;2023-05-31T17:21:48;3.97;;;2.95;;
29940;SDS011;16801;53.562;10.038;2023-05-31T17:25:08;6.68;;;2.50;;
29940;SDS011;16801;53.562;10.038;2023-05-31T17:28:29;5.65;;;3.03;;
29940;SDS011;16801;53.562;10.038;2023-05-31T17:31:51;5.32;;;4.05;;
29940;SDS011;16801;53.562;10.038;2023-05-31T17:35:13;4.97;;;2.95;;
29940;SDS011;16801;53.562;10.038;2023-05-31T17:38:34;6.28;;;5.28;;
29940;SDS011;16801;53.562;10.038;2023-05-31T17:41:54;3.63;;;3.20;;
29940;SDS011;16801;53.562;10.038;2023-05-31T17:45:15;2.25;;;1.88;;
29940;SDS011;16801;53.562;10.038;2023-05-31T17:48:38;4.80;;;2.70;;
29940;SDS011;16801;53.562;10.038;2023-05-31T17:52:01;7.88;;;3.92;;
29940;SDS011;16801;53.562;10.038;2023-05-31T17:55:22;5.75;;;4.55;;
29940;SDS011;16801;53.562;10.038;2023-05-31T17:58:43;5.53;;;3.15;;
29940;SDS011;16801;53.562;10.038;2023-05-31T18:02:04;4.40;;;3.30;;
29940;SDS011;16801;53.562;10.038;2023-05-31T18:05:27;4.20;;;2.72;;
29940;SDS011;16801;53.562;10.038;2023-05-31T18:08:48;5.25;;;3.47;;
29940;SDS011;16801;53.562;10.038;2023-05-31T18:12:09;13.95;;;7.57;;
29940;SDS011;16801;53.562;10.038;2023-05-31T18:15:30;6.32;;;4.35;;
29940;SDS011;16801;53.562;10.038;2023-05-31T18:18:51;12.23;;;8.73;;
29940;SDS011;16801;53.562;10.038;2023-05-31T18:22:13;8.32;;;4.00;;
29940;SDS011;16801;53.562;10.038;2023-05-31T18:25:34;7.00;;;3.45;;
29940;SDS011;16801;53.562;10.038;2023-05-31T18:28:54;9.18;;;4.45;;
29940;SDS011;16801;53.562;10.038;2023-05-31T18:32:16;5.45;;;2.65;;
29940;SDS011;16801;53.562;10.038;2023-05-31T18:35:38;6.47;;;3.35;;
29940;SDS011;16801;53.562;10.038;2023-05-31T18:39:01;10.45;;;3.15;;
29940;SDS011;16801;53.562;10.038;2023-05-31T18:42:22;6.00;;;3.28;;
29940;SDS011;16801;53.562;10.038;2023-05-31T18:45:43;10.77;;;2.17;;
29940;SDS011;16801;53.562;10.038;2023-05-31T18:49:05;14.07;;;2.80;;
29940;SDS011;16801;53.562;10.038;2023-05-31T18:52:25;5.35;;;2.55;;
29940;SDS011;16801;53.562;10.038;2023-05-31T18:55:48;7.95;;;2.33;;
29940;SDS011;16801;53.562;10.038;2023-05-31T18:59:09;3.13;;;2.67;;
29940;SDS011;16801;53.562;10.038;2023-05-31T19:02:30;3.40;;;2.38;;
29940;SDS011;16801;53.562;10.038;2023-05-31T19:05:51;7.35;;;3.00;;
29940;SDS011;16801;53.562;10.038;2023-05-31T19:09:12;7.45;;;2.97;;
29940;SDS011;16801;53.562;10.038;2023-05-31T19:12:34;5.25;;;4.25;;
29940;SDS011;16801;53.562;10.038;2023-05-31T19:15:55;4.68;;;2.55;;
29940;SDS011;16801;53.562;10.038;2023-05-31T19:19:16;7.13;;;2.85;;
29940;SDS011;16801;53.562;10.038;2023-05-31T19:22:45;5.15;;;3.10;;
29940;SDS011;16801;53.562;10.038;2023-05-31T19:26:07;9.25;;;6.30;;
29940;SDS011;16801;53.562;10.038;2023-05-31T19:29:29;10.52;;;4.65;;
29940;SDS011;16801;53.562;10.038;2023-05-31T19:32:50;5.10;;;2.60;;
29940;SDS011;16801;53.562;10.038;2023-05-31T19:36:11;6.38;;;2.90;;
29940;SDS011;16801;53.562;10.038;2023-05-31T19:39:32;9.82;;;6.32;;
29940;SDS011;16801;53.562;10.038;2023-05-31T19:42:53;6.82;;;3.55;;
29940;SDS011;16801;53.562;10.038;2023-05-31T19:46:17;3.00;;;2.60;;
29940;SDS011;16801;53.562;10.038;2023-05-31T19:49:38;11.18;;;3.83;;
29940;SDS011;16801;53.562;10.038;2023-05-31T19:52:59;7.75;;;2.55;;
29940;SDS011;16801;53.562;10.038;2023-05-31T19:56:20;3.97;;;2.72;;
29940;SDS011;16801;53.562;10.038;2023-05-31T19:59:41;3.60;;;2.35;;
29940;SDS011;16801;53.562;10.038;2023-05-31T20:03:03;4.10;;;2.15;;
29940;SDS011;16801;53.562;10.038;2023-05-31T20:06:24;4.88;;;2.60;;